sensor_id;sensor_type;location;lat;lon;timestamp;temperature;humidity
5258;DHT22;2651;51.594;9.928;2023-09-30T00:00:32;15.00;16.60
5258;DHT22;2651;51.594;9.928;2023-09-30T00:01:35;14.90;99.90
5258;DHT22;2651;51.594;9.928;2023-09-30T00:02:37;14.90;99.90
5258;DHT22;2651;51.594;9.928;2023-09-30T00:03:39;14.90;1.00
5258;DHT22;2651;51.594;9.928;2023-09-30T00:04:41;14.80;1.00
5258;DHT22;2651;51.594;9.928;2023-09-30T00:05:43;14.80;1.00
5258;DHT22;2651;51.594;9.928;2023-09-30T00:06:45;14.80;1.00
5258;DHT22;2651;51.594;9.928;2023-09-30T00:07:46;14.90;1.00
5258;DHT22;2651;51.594;9.928;2023-09-30T00:08:48;14.90;1.00
5258;DHT22;2651;51.594;9.928;2023-09-30T00:09:50;14.90;1.00
5258;DHT22;2651;51.594;9.928;2023-09-30T00:10:53;14.90;1.00
5258;DHT22;2651;51.594;9.928;2023-09-30T00:11:56;14.90;1.00
5258;DHT22;2651;51.594;9.928;2023-09-30T00:12:57;14.80;1.00
5258;DHT22;2651;51.594;9.928;2023-09-30T00:14:00;14.80;1.00
5258;DHT22;2651;51.594;9.928;2023-09-30T00:15:02;14.70;82.10
5258;DHT22;2651;51.594;9.928;2023-09-30T00:16:05;14.80;99.30
5258;DHT22;2651;51.594;9.928;2023-09-30T00:17:07;14.90;80.80
5258;DHT22;2651;51.594;9.928;2023-09-30T00:18:09;14.90;33.80
5258;DHT22;2651;51.594;9.928;2023-09-30T00:19:11;14.90;81.80
5258;DHT22;2651;51.594;9.928;2023-09-30T00:20:13;14.80;32.20
5258;DHT22;2651;51.594;9.928;2023-09-30T00:21:16;14.90;56.20
5258;DHT22;2651;51.594;9.928;2023-09-30T00:22:17;14.80;96.00
5258;DHT22;2651;51.594;9.928;2023-09-30T00:23:19;14.80;99.90
5258;DHT22;2651;51.594;9.928;2023-09-30T00:24:23;14.80;99.90
5258;DHT22;2651;51.594;9.928;2023-09-30T00:25:24;14.80;99.20
5258;DHT22;2651;51.594;9.928;2023-09-30T00:26:26;14.80;90.30
5258;DHT22;2651;51.594;9.928;2023-09-30T00:27:28;14.80;99.90
5258;DHT22;2651;51.594;9.928;2023-09-30T00:28:29;14.80;99.90
5258;DHT22;2651;51.594;9.928;2023-09-30T00:29:31;14.80;99.90
5258;DHT22;2651;51.594;9.928;2023-09-30T00:30:33;14.90;99.90
5258;DHT22;2651;51.594;9.928;2023-09-30T00:31:34;14.90;99.60
5258;DHT22;2651;51.594;9.928;2023-09-30T00:32:36;14.80;72.50
5258;DHT22;2651;51.594;9.928;2023-09-30T00:33:38;14.80;18.80
5258;DHT22;2651;51.594;9.928;2023-09-30T00:34:40;14.80;10.20
5258;DHT22;2651;51.594;9.928;2023-09-30T00:35:42;14.80;17.70
5258;DHT22;2651;51.594;9.928;2023-09-30T00:36:43;14.70;35.90
5258;DHT22;2651;51.594;9.928;2023-09-30T00:37:45;14.60;50.50
5258;DHT22;2651;51.594;9.928;2023-09-30T00:38:47;14.60;96.50
5258;DHT22;2651;51.594;9.928;2023-09-30T00:39:49;14.60;91.80
5258;DHT22;2651;51.594;9.928;2023-09-30T00:40:50;14.70;71.90
5258;DHT22;2651;51.594;9.928;2023-09-30T00:41:52;14.60;1.00
5258;DHT22;2651;51.594;9.928;2023-09-30T00:42:55;14.60;1.00
5258;DHT22;2651;51.594;9.928;2023-09-30T00:43:57;14.60;19.30
5258;DHT22;2651;51.594;9.928;2023-09-30T00:44:59;14.60;1.00
5258;DHT22;2651;51.594;9.928;2023-09-30T00:46:29;14.60;1.00
5258;DHT22;2651;51.594;9.928;2023-09-30T00:47:32;14.60;22.30
5258;DHT22;2651;51.594;9.928;2023-09-30T00:48:35;14.60;1.00
5258;DHT22;2651;51.594;9.928;2023-09-30T00:49:37;14.50;1.00
5258;DHT22;2651;51.594;9.928;2023-09-30T00:50:39;14.40;1.00
5258;DHT22;2651;51.594;9.928;2023-09-30T00:51:42;14.40;1.00
5258;DHT22;2651;51.594;9.928;2023-09-30T00:52:45;14.40;2.40
5258;DHT22;2651;51.594;9.928;2023-09-30T00:53:52;14.30;17.00
5258;DHT22;2651;51.594;9.928;2023-09-30T00:54:54;14.40;62.60
5258;DHT22;2651;51.594;9.928;2023-09-30T00:55:57;14.40;84.60
5258;DHT22;2651;51.594;9.928;2023-09-30T00:57:00;14.40;15.90
5258;DHT22;2651;51.594;9.928;2023-09-30T00:58:03;14.40;1.00
5258;DHT22;2651;51.594;9.928;2023-09-30T00:59:05;14.30;1.00
5258;DHT22;2651;51.594;9.928;2023-09-30T01:00:08;14.20;31.70
5258;DHT22;2651;51.594;9.928;2023-09-30T01:01:15;14.30;99.90
5258;DHT22;2651;51.594;9.928;2023-09-30T01:02:18;14.30;94.50
5258;DHT22;2651;51.594;9.928;2023-09-30T01:03:20;14.40;49.40
5258;DHT22;2651;51.594;9.928;2023-09-30T01:04:22;14.40;1.00
5258;DHT22;2651;51.594;9.928;2023-09-30T01:05:24;14.40;1.00
5258;DHT22;2651;51.594;9.928;2023-09-30T01:06:26;14.50;1.00
5258;DHT22;2651;51.594;9.928;2023-09-30T01:07:28;14.50;1.00
5258;DHT22;2651;51.594;9.928;2023-09-30T01:08:30;14.40;1.00
5258;DHT22;2651;51.594;9.928;2023-09-30T01:09:33;14.30;1.00
5258;DHT22;2651;51.594;9.928;2023-09-30T01:10:35;14.30;1.00
5258;DHT22;2651;51.594;9.928;2023-09-30T01:11:37;14.30;1.00
5258;DHT22;2651;51.594;9.928;2023-09-30T01:12:39;14.30;1.00
5258;DHT22;2651;51.594;9.928;2023-09-30T01:13:41;14.20;1.00
5258;DHT22;2651;51.594;9.928;2023-09-30T01:14:44;14.10;1.00
5258;DHT22;2651;51.594;9.928;2023-09-30T01:15:46;14.10;1.00
5258;DHT22;2651;51.594;9.928;2023-09-30T01:16:49;14.20;1.00
5258;DHT22;2651;51.594;9.928;2023-09-30T01:17:50;14.20;1.00
5258;DHT22;2651;51.594;9.928;2023-09-30T01:18:52;14.20;1.00
5258;DHT22;2651;51.594;9.928;2023-09-30T01:19:54;14.20;1.00
5258;DHT22;2651;51.594;9.928;2023-09-30T01:20:57;14.30;1.00
5258;DHT22;2651;51.594;9.928;2023-09-30T01:22:00;14.30;1.00
5258;DHT22;2651;51.594;9.928;2023-09-30T01:23:02;14.30;1.00
5258;DHT22;2651;51.594;9.928;2023-09-30T01:24:04;14.20;1.00
5258;DHT22;2651;51.594;9.928;2023-09-30T01:25:07;14.30;1.00
5258;DHT22;2651;51.594;9.928;2023-09-30T01:26:12;14.30;1.00
5258;DHT22;2651;51.594;9.928;2023-09-30T01:27:14;14.20;99.90
5258;DHT22;2651;51.594;9.928;2023-09-30T01:28:18;14.20;99.90
5258;DHT22;2651;51.594;9.928;2023-09-30T01:29:20;14.20;99.90
5258;DHT22;2651;51.594;9.928;2023-09-30T01:30:23;14.20;99.90
5258;DHT22;2651;51.594;9.928;2023-09-30T01:31:25;14.10;99.90
5258;DHT22;2651;51.594;9.928;2023-09-30T01:32:27;14.10;99.90
5258;DHT22;2651;51.594;9.928;2023-09-30T01:33:30;14.10;1.00
5258;DHT22;2651;51.594;9.928;2023-09-30T01:34:32;14.10;1.00
5258;DHT22;2651;51.594;9.928;2023-09-30T01:35:34;14.10;1.00
5258;DHT22;2651;51.594;9.928;2023-09-30T01:36:36;14.00;1.00
5258;DHT22;2651;51.594;9.928;2023-09-30T01:37:38;13.90;1.00
5258;DHT22;2651;51.594;9.928;2023-09-30T01:38:39;13.90;1.00
5258;DHT22;2651;51.594;9.928;2023-09-30T01:39:42;13.90;1.00
5258;DHT22;2651;51.594;9.928;2023-09-30T01:40:46;13.90;1.00
5258;DHT22;2651;51.594;9.928;2023-09-30T01:41:48;13.90;1.00
5258;DHT22;2651;51.594;9.928;2023-09-30T01:42:50;13.80;1.00
5258;DHT22;2651;51.594;9.928;2023-09-30T01:43:52;13.80;1.00
5258;DHT22;2651;51.594;9.928;2023-09-30T01:44:54;13.80;6.90
5258;DHT22;2651;51.594;9.928;2023-09-30T01:45:58;13.80;11.80
5258;DHT22;2651;51.594;9.928;2023-09-30T01:47:00;13.80;42.50
5258;DHT22;2651;51.594;9.928;2023-09-30T01:48:02;13.80;42.70
5258;DHT22;2651;51.594;9.928;2023-09-30T01:49:04;13.80;23.80
5258;DHT22;2651;51.594;9.928;2023-09-30T01:50:06;13.70;6.20
5258;DHT22;2651;51.594;9.928;2023-09-30T01:51:08;13.80;96.40
5258;DHT22;2651;51.594;9.928;2023-09-30T01:52:10;13.90;94.70
5258;DHT22;2651;51.594;9.928;2023-09-30T01:53:11;13.90;46.00
5258;DHT22;2651;51.594;9.928;2023-09-30T01:54:13;13.90;1.00
5258;DHT22;2651;51.594;9.928;2023-09-30T01:55:15;13.90;1.00
5258;DHT22;2651;51.594;9.928;2023-09-30T01:56:17;14.00;1.00
5258;DHT22;2651;51.594;9.928;2023-09-30T01:57:19;14.00;1.00
5258;DHT22;2651;51.594;9.928;2023-09-30T01:58:21;13.90;1.00
5258;DHT22;2651;51.594;9.928;2023-09-30T01:59:22;13.90;1.00
5258;DHT22;2651;51.594;9.928;2023-09-30T02:00:25;13.90;1.00
5258;DHT22;2651;51.594;9.928;2023-09-30T02:01:27;13.70;1.00
5258;DHT22;2651;51.594;9.928;2023-09-30T02:02:28;13.70;1.00
5258;DHT22;2651;51.594;9.928;2023-09-30T02:03:30;13.70;1.00
5258;DHT22;2651;51.594;9.928;2023-09-30T02:04:32;13.70;1.00
5258;DHT22;2651;51.594;9.928;2023-09-30T02:05:34;13.60;1.00
5258;DHT22;2651;51.594;9.928;2023-09-30T02:06:36;13.70;20.10
5258;DHT22;2651;51.594;9.928;2023-09-30T02:07:38;13.60;1.00
5258;DHT22;2651;51.594;9.928;2023-09-30T02:08:39;13.60;1.00
5258;DHT22;2651;51.594;9.928;2023-09-30T02:09:41;13.60;1.00
5258;DHT22;2651;51.594;9.928;2023-09-30T02:10:43;13.50;1.00
5258;DHT22;2651;51.594;9.928;2023-09-30T02:11:45;13.40;21.90
5258;DHT22;2651;51.594;9.928;2023-09-30T02:12:47;13.40;99.90
5258;DHT22;2651;51.594;9.928;2023-09-30T02:13:49;13.40;99.90
5258;DHT22;2651;51.594;9.928;2023-09-30T02:14:51;13.60;99.90
5258;DHT22;2651;51.594;9.928;2023-09-30T02:15:53;13.60;99.90
5258;DHT22;2651;51.594;9.928;2023-09-30T02:16:57;13.70;95.10
5258;DHT22;2651;51.594;9.928;2023-09-30T02:17:59;13.60;25.80
5258;DHT22;2651;51.594;9.928;2023-09-30T02:19:02;13.70;72.90
5258;DHT22;2651;51.594;9.928;2023-09-30T02:20:04;13.70;1.00
5258;DHT22;2651;51.594;9.928;2023-09-30T02:21:08;13.70;1.00
5258;DHT22;2651;51.594;9.928;2023-09-30T02:22:10;13.70;1.00
5258;DHT22;2651;51.594;9.928;2023-09-30T02:23:12;13.70;1.00
5258;DHT22;2651;51.594;9.928;2023-09-30T02:24:14;13.70;1.00
5258;DHT22;2651;51.594;9.928;2023-09-30T02:25:16;13.70;1.00
5258;DHT22;2651;51.594;9.928;2023-09-30T02:26:18;13.70;35.60
5258;DHT22;2651;51.594;9.928;2023-09-30T02:27:20;13.80;28.70
5258;DHT22;2651;51.594;9.928;2023-09-30T02:28:22;13.70;1.00
5258;DHT22;2651;51.594;9.928;2023-09-30T02:29:23;13.70;1.00
5258;DHT22;2651;51.594;9.928;2023-09-30T02:30:25;13.70;1.00
5258;DHT22;2651;51.594;9.928;2023-09-30T02:31:29;13.70;1.00
5258;DHT22;2651;51.594;9.928;2023-09-30T02:32:31;13.80;1.00
5258;DHT22;2651;51.594;9.928;2023-09-30T02:33:35;13.70;1.00
5258;DHT22;2651;51.594;9.928;2023-09-30T02:34:37;13.70;9.50
5258;DHT22;2651;51.594;9.928;2023-09-30T02:35:44;13.80;1.00
5258;DHT22;2651;51.594;9.928;2023-09-30T02:36:46;13.80;1.00
5258;DHT22;2651;51.594;9.928;2023-09-30T02:37:49;13.80;1.00
5258;DHT22;2651;51.594;9.928;2023-09-30T02:38:53;13.80;1.00
5258;DHT22;2651;51.594;9.928;2023-09-30T02:39:55;13.80;1.00
5258;DHT22;2651;51.594;9.928;2023-09-30T02:40:57;13.80;1.00
5258;DHT22;2651;51.594;9.928;2023-09-30T02:41:58;13.80;1.00
5258;DHT22;2651;51.594;9.928;2023-09-30T02:43:00;13.80;1.00
5258;DHT22;2651;51.594;9.928;2023-09-30T02:44:03;13.80;1.00
5258;DHT22;2651;51.594;9.928;2023-09-30T02:45:06;13.80;1.00
5258;DHT22;2651;51.594;9.928;2023-09-30T02:46:09;13.80;1.00
5258;DHT22;2651;51.594;9.928;2023-09-30T02:47:11;13.80;12.40
5258;DHT22;2651;51.594;9.928;2023-09-30T02:48:13;13.80;27.20
5258;DHT22;2651;51.594;9.928;2023-09-30T02:49:15;13.80;5.60
5258;DHT22;2651;51.594;9.928;2023-09-30T02:50:17;13.80;1.00
5258;DHT22;2651;51.594;9.928;2023-09-30T02:51:19;13.70;1.00
5258;DHT22;2651;51.594;9.928;2023-09-30T02:52:21;13.60;1.00
5258;DHT22;2651;51.594;9.928;2023-09-30T02:53:22;13.60;43.00
5258;DHT22;2651;51.594;9.928;2023-09-30T02:54:24;13.70;72.00
5258;DHT22;2651;51.594;9.928;2023-09-30T02:55:26;13.60;34.80
5258;DHT22;2651;51.594;9.928;2023-09-30T02:56:27;13.60;94.20
5258;DHT22;2651;51.594;9.928;2023-09-30T02:57:31;13.60;66.20
5258;DHT22;2651;51.594;9.928;2023-09-30T02:58:33;13.60;74.00
5258;DHT22;2651;51.594;9.928;2023-09-30T02:59:35;13.60;84.80
5258;DHT22;2651;51.594;9.928;2023-09-30T03:00:37;13.60;99.90
5258;DHT22;2651;51.594;9.928;2023-09-30T03:01:39;13.60;99.90
5258;DHT22;2651;51.594;9.928;2023-09-30T03:02:41;13.60;83.80
5258;DHT22;2651;51.594;9.928;2023-09-30T03:03:43;13.60;73.50
5258;DHT22;2651;51.594;9.928;2023-09-30T03:04:46;13.60;11.10
5258;DHT22;2651;51.594;9.928;2023-09-30T03:05:48;13.50;59.20
5258;DHT22;2651;51.594;9.928;2023-09-30T03:06:51;13.50;98.80
5258;DHT22;2651;51.594;9.928;2023-09-30T03:07:53;13.50;99.90
5258;DHT22;2651;51.594;9.928;2023-09-30T03:08:56;13.50;99.90
5258;DHT22;2651;51.594;9.928;2023-09-30T03:09:58;13.60;99.90
5258;DHT22;2651;51.594;9.928;2023-09-30T03:11:01;13.60;99.90
5258;DHT22;2651;51.594;9.928;2023-09-30T03:12:03;13.60;99.90
5258;DHT22;2651;51.594;9.928;2023-09-30T03:13:06;13.60;74.50
5258;DHT22;2651;51.594;9.928;2023-09-30T03:14:10;13.60;38.80
5258;DHT22;2651;51.594;9.928;2023-09-30T03:15:13;13.60;16.00
5258;DHT22;2651;51.594;9.928;2023-09-30T03:16:16;13.60;1.00
5258;DHT22;2651;51.594;9.928;2023-09-30T03:17:18;13.60;6.50
5258;DHT22;2651;51.594;9.928;2023-09-30T03:18:20;13.60;1.00
5258;DHT22;2651;51.594;9.928;2023-09-30T03:19:28;13.60;5.40
5258;DHT22;2651;51.594;9.928;2023-09-30T03:20:30;13.60;10.90
5258;DHT22;2651;51.594;9.928;2023-09-30T03:21:32;13.60;40.80
5258;DHT22;2651;51.594;9.928;2023-09-30T03:22:34;13.40;1.00
5258;DHT22;2651;51.594;9.928;2023-09-30T03:23:35;13.40;1.00
5258;DHT22;2651;51.594;9.928;2023-09-30T03:24:38;13.40;1.00
5258;DHT22;2651;51.594;9.928;2023-09-30T03:25:41;13.40;1.00
5258;DHT22;2651;51.594;9.928;2023-09-30T03:26:43;13.30;1.00
5258;DHT22;2651;51.594;9.928;2023-09-30T03:27:45;13.20;37.40
5258;DHT22;2651;51.594;9.928;2023-09-30T03:28:48;13.20;99.90
5258;DHT22;2651;51.594;9.928;2023-09-30T03:29:51;13.10;91.60
5258;DHT22;2651;51.594;9.928;2023-09-30T03:30:53;13.10;99.90
5258;DHT22;2651;51.594;9.928;2023-09-30T03:31:55;13.10;99.90
5258;DHT22;2651;51.594;9.928;2023-09-30T03:32:58;13.10;99.90
5258;DHT22;2651;51.594;9.928;2023-09-30T03:33:59;13.20;99.90
5258;DHT22;2651;51.594;9.928;2023-09-30T03:35:02;13.10;99.90
5258;DHT22;2651;51.594;9.928;2023-09-30T03:36:04;13.10;99.90
5258;DHT22;2651;51.594;9.928;2023-09-30T03:37:05;13.00;99.90
5258;DHT22;2651;51.594;9.928;2023-09-30T03:38:08;13.10;99.90
5258;DHT22;2651;51.594;9.928;2023-09-30T03:39:11;13.10;99.90
5258;DHT22;2651;51.594;9.928;2023-09-30T03:40:16;13.10;99.90
5258;DHT22;2651;51.594;9.928;2023-09-30T03:41:22;13.20;99.90
5258;DHT22;2651;51.594;9.928;2023-09-30T03:42:24;13.10;99.90
5258;DHT22;2651;51.594;9.928;2023-09-30T03:43:25;13.10;99.90
5258;DHT22;2651;51.594;9.928;2023-09-30T03:44:27;13.00;99.90
5258;DHT22;2651;51.594;9.928;2023-09-30T03:45:30;13.10;99.90
5258;DHT22;2651;51.594;9.928;2023-09-30T03:46:31;13.10;99.90
5258;DHT22;2651;51.594;9.928;2023-09-30T03:47:37;13.20;99.90
5258;DHT22;2651;51.594;9.928;2023-09-30T03:48:39;13.20;99.90
5258;DHT22;2651;51.594;9.928;2023-09-30T03:49:42;13.20;99.90
5258;DHT22;2651;51.594;9.928;2023-09-30T03:50:44;13.20;99.90
5258;DHT22;2651;51.594;9.928;2023-09-30T03:51:47;13.20;99.90
5258;DHT22;2651;51.594;9.928;2023-09-30T03:52:48;13.20;99.90
5258;DHT22;2651;51.594;9.928;2023-09-30T03:53:51;13.20;99.90
5258;DHT22;2651;51.594;9.928;2023-09-30T03:54:53;13.20;99.90
5258;DHT22;2651;51.594;9.928;2023-09-30T03:55:55;13.20;99.90
5258;DHT22;2651;51.594;9.928;2023-09-30T03:56:57;13.20;99.90
5258;DHT22;2651;51.594;9.928;2023-09-30T03:57:59;13.10;99.90
5258;DHT22;2651;51.594;9.928;2023-09-30T03:59:01;13.20;99.90
5258;DHT22;2651;51.594;9.928;2023-09-30T04:00:03;13.20;99.90
5258;DHT22;2651;51.594;9.928;2023-09-30T04:01:09;13.20;99.90
5258;DHT22;2651;51.594;9.928;2023-09-30T04:02:15;13.10;99.90
5258;DHT22;2651;51.594;9.928;2023-09-30T04:03:17;13.10;99.90
5258;DHT22;2651;51.594;9.928;2023-09-30T04:04:22;13.10;99.90
5258;DHT22;2651;51.594;9.928;2023-09-30T04:05:24;13.20;99.90
5258;DHT22;2651;51.594;9.928;2023-09-30T04:06:36;13.20;99.90
5258;DHT22;2651;51.594;9.928;2023-09-30T04:07:40;13.30;99.90
5258;DHT22;2651;51.594;9.928;2023-09-30T04:08:43;13.30;99.90
5258;DHT22;2651;51.594;9.928;2023-09-30T04:09:45;13.40;99.90
5258;DHT22;2651;51.594;9.928;2023-09-30T04:10:47;13.40;99.90
5258;DHT22;2651;51.594;9.928;2023-09-30T04:11:49;13.40;99.90
5258;DHT22;2651;51.594;9.928;2023-09-30T04:12:51;13.30;99.90
5258;DHT22;2651;51.594;9.928;2023-09-30T04:13:53;13.20;99.90
5258;DHT22;2651;51.594;9.928;2023-09-30T04:14:55;13.20;99.90
5258;DHT22;2651;51.594;9.928;2023-09-30T04:15:57;13.10;99.90
5258;DHT22;2651;51.594;9.928;2023-09-30T04:17:02;13.10;99.90
5258;DHT22;2651;51.594;9.928;2023-09-30T04:18:04;13.10;99.90
5258;DHT22;2651;51.594;9.928;2023-09-30T04:19:09;13.20;99.90
5258;DHT22;2651;51.594;9.928;2023-09-30T04:20:12;13.20;99.90
5258;DHT22;2651;51.594;9.928;2023-09-30T04:21:18;13.10;99.90
5258;DHT22;2651;51.594;9.928;2023-09-30T04:22:20;13.10;99.90
5258;DHT22;2651;51.594;9.928;2023-09-30T04:23:22;13.10;99.90
5258;DHT22;2651;51.594;9.928;2023-09-30T04:24:24;13.20;99.90
5258;DHT22;2651;51.594;9.928;2023-09-30T04:25:26;13.10;99.90
5258;DHT22;2651;51.594;9.928;2023-09-30T04:26:28;13.10;99.90
5258;DHT22;2651;51.594;9.928;2023-09-30T04:27:30;13.10;99.90
5258;DHT22;2651;51.594;9.928;2023-09-30T04:28:32;13.20;99.90
5258;DHT22;2651;51.594;9.928;2023-09-30T04:29:35;13.20;99.90
5258;DHT22;2651;51.594;9.928;2023-09-30T04:30:37;13.20;99.90
5258;DHT22;2651;51.594;9.928;2023-09-30T04:31:39;13.10;99.90
5258;DHT22;2651;51.594;9.928;2023-09-30T04:32:43;13.10;99.90
5258;DHT22;2651;51.594;9.928;2023-09-30T04:33:45;13.10;99.90
5258;DHT22;2651;51.594;9.928;2023-09-30T04:34:47;13.00;99.90
5258;DHT22;2651;51.594;9.928;2023-09-30T04:35:49;13.00;99.90
5258;DHT22;2651;51.594;9.928;2023-09-30T04:36:50;13.00;99.90
5258;DHT22;2651;51.594;9.928;2023-09-30T04:37:53;12.90;99.90
5258;DHT22;2651;51.594;9.928;2023-09-30T04:38:55;13.00;99.90
5258;DHT22;2651;51.594;9.928;2023-09-30T04:39:57;13.00;99.90
5258;DHT22;2651;51.594;9.928;2023-09-30T04:41:00;13.00;99.90
5258;DHT22;2651;51.594;9.928;2023-09-30T04:42:02;13.00;99.90
5258;DHT22;2651;51.594;9.928;2023-09-30T04:43:05;13.00;99.90
5258;DHT22;2651;51.594;9.928;2023-09-30T04:44:10;12.90;99.90
5258;DHT22;2651;51.594;9.928;2023-09-30T04:45:13;12.90;99.90
5258;DHT22;2651;51.594;9.928;2023-09-30T04:46:18;12.90;99.90
5258;DHT22;2651;51.594;9.928;2023-09-30T04:47:22;12.90;99.90
5258;DHT22;2651;51.594;9.928;2023-09-30T04:48:24;13.00;99.90
5258;DHT22;2651;51.594;9.928;2023-09-30T04:49:25;12.90;99.90
5258;DHT22;2651;51.594;9.928;2023-09-30T04:50:27;13.00;99.90
5258;DHT22;2651;51.594;9.928;2023-09-30T04:51:29;12.90;99.90
5258;DHT22;2651;51.594;9.928;2023-09-30T04:52:32;12.90;99.90
5258;DHT22;2651;51.594;9.928;2023-09-30T04:53:34;12.80;99.90
5258;DHT22;2651;51.594;9.928;2023-09-30T04:54:36;12.70;99.90
5258;DHT22;2651;51.594;9.928;2023-09-30T04:55:37;12.70;99.90
5258;DHT22;2651;51.594;9.928;2023-09-30T04:56:39;12.70;99.90
5258;DHT22;2651;51.594;9.928;2023-09-30T04:57:41;12.80;99.90
5258;DHT22;2651;51.594;9.928;2023-09-30T04:58:45;12.80;99.90
5258;DHT22;2651;51.594;9.928;2023-09-30T04:59:48;12.80;99.90
5258;DHT22;2651;51.594;9.928;2023-09-30T05:00:50;12.90;99.90
5258;DHT22;2651;51.594;9.928;2023-09-30T05:01:52;12.90;99.90
5258;DHT22;2651;51.594;9.928;2023-09-30T05:02:57;13.00;99.90
5258;DHT22;2651;51.594;9.928;2023-09-30T05:04:00;13.00;99.90
5258;DHT22;2651;51.594;9.928;2023-09-30T05:05:03;12.90;99.90
5258;DHT22;2651;51.594;9.928;2023-09-30T05:06:07;12.90;99.90
5258;DHT22;2651;51.594;9.928;2023-09-30T05:07:09;12.90;99.90
5258;DHT22;2651;51.594;9.928;2023-09-30T05:08:11;12.80;99.90
5258;DHT22;2651;51.594;9.928;2023-09-30T05:09:15;12.80;99.90
5258;DHT22;2651;51.594;9.928;2023-09-30T05:10:17;12.80;99.90
5258;DHT22;2651;51.594;9.928;2023-09-30T05:11:19;12.80;99.90
5258;DHT22;2651;51.594;9.928;2023-09-30T05:12:20;12.80;99.90
5258;DHT22;2651;51.594;9.928;2023-09-30T05:13:22;12.80;99.90
5258;DHT22;2651;51.594;9.928;2023-09-30T05:14:27;12.80;99.90
5258;DHT22;2651;51.594;9.928;2023-09-30T05:15:30;12.80;99.90
5258;DHT22;2651;51.594;9.928;2023-09-30T05:16:34;12.70;99.90
5258;DHT22;2651;51.594;9.928;2023-09-30T05:17:36;12.80;99.90
5258;DHT22;2651;51.594;9.928;2023-09-30T05:18:38;12.70;99.90
5258;DHT22;2651;51.594;9.928;2023-09-30T05:19:40;12.70;99.90
5258;DHT22;2651;51.594;9.928;2023-09-30T05:20:42;12.80;99.90
5258;DHT22;2651;51.594;9.928;2023-09-30T05:21:43;12.80;99.90
5258;DHT22;2651;51.594;9.928;2023-09-30T05:22:46;12.90;99.90
5258;DHT22;2651;51.594;9.928;2023-09-30T05:23:48;12.90;99.90
5258;DHT22;2651;51.594;9.928;2023-09-30T05:24:51;13.00;99.90
5258;DHT22;2651;51.594;9.928;2023-09-30T05:25:53;12.90;99.90
5258;DHT22;2651;51.594;9.928;2023-09-30T05:26:55;12.90;99.90
5258;DHT22;2651;51.594;9.928;2023-09-30T05:27:57;13.00;99.90
5258;DHT22;2651;51.594;9.928;2023-09-30T05:28:59;13.00;99.90
5258;DHT22;2651;51.594;9.928;2023-09-30T05:30:01;13.10;99.90
5258;DHT22;2651;51.594;9.928;2023-09-30T05:31:02;13.10;99.90
5258;DHT22;2651;51.594;9.928;2023-09-30T05:32:04;13.20;99.90
5258;DHT22;2651;51.594;9.928;2023-09-30T05:33:06;13.20;99.90
5258;DHT22;2651;51.594;9.928;2023-09-30T05:34:08;13.20;99.90
5258;DHT22;2651;51.594;9.928;2023-09-30T05:35:10;13.10;99.90
5258;DHT22;2651;51.594;9.928;2023-09-30T05:36:15;13.10;99.90
5258;DHT22;2651;51.594;9.928;2023-09-30T05:37:17;13.20;99.90
5258;DHT22;2651;51.594;9.928;2023-09-30T05:38:19;13.20;99.90
5258;DHT22;2651;51.594;9.928;2023-09-30T05:39:21;13.20;99.90
5258;DHT22;2651;51.594;9.928;2023-09-30T05:40:23;13.20;99.90
5258;DHT22;2651;51.594;9.928;2023-09-30T05:41:28;13.30;99.90
5258;DHT22;2651;51.594;9.928;2023-09-30T05:42:31;13.30;99.90
5258;DHT22;2651;51.594;9.928;2023-09-30T05:43:33;13.30;99.90
5258;DHT22;2651;51.594;9.928;2023-09-30T05:44:34;13.40;99.90
5258;DHT22;2651;51.594;9.928;2023-09-30T05:45:36;13.30;99.90
5258;DHT22;2651;51.594;9.928;2023-09-30T05:46:38;13.40;99.90
5258;DHT22;2651;51.594;9.928;2023-09-30T05:47:40;13.30;99.90
5258;DHT22;2651;51.594;9.928;2023-09-30T05:48:42;13.40;99.90
5258;DHT22;2651;51.594;9.928;2023-09-30T05:49:44;13.40;99.90
5258;DHT22;2651;51.594;9.928;2023-09-30T05:50:45;13.50;99.90
5258;DHT22;2651;51.594;9.928;2023-09-30T05:51:47;13.50;6.60
5258;DHT22;2651;51.594;9.928;2023-09-30T05:52:53;13.50;13.10
5258;DHT22;2651;51.594;9.928;2023-09-30T05:53:55;13.40;1.00
5258;DHT22;2651;51.594;9.928;2023-09-30T05:54:57;13.40;1.00
5258;DHT22;2651;51.594;9.928;2023-09-30T05:55:59;13.40;1.00
5258;DHT22;2651;51.594;9.928;2023-09-30T05:57:05;13.40;15.10
5258;DHT22;2651;51.594;9.928;2023-09-30T05:58:06;13.40;1.00
5258;DHT22;2651;51.594;9.928;2023-09-30T05:59:09;13.30;1.00
5258;DHT22;2651;51.594;9.928;2023-09-30T06:00:12;13.30;16.40
5258;DHT22;2651;51.594;9.928;2023-09-30T06:01:21;13.30;92.70
5258;DHT22;2651;51.594;9.928;2023-09-30T06:02:23;13.30;93.70
5258;DHT22;2651;51.594;9.928;2023-09-30T06:03:26;13.30;99.90
5258;DHT22;2651;51.594;9.928;2023-09-30T06:04:31;13.40;99.20
5258;DHT22;2651;51.594;9.928;2023-09-30T06:05:39;13.40;89.40
5258;DHT22;2651;51.594;9.928;2023-09-30T06:06:42;13.40;92.00
5258;DHT22;2651;51.594;9.928;2023-09-30T06:07:48;13.40;72.10
5258;DHT22;2651;51.594;9.928;2023-09-30T06:08:50;13.40;99.90
5258;DHT22;2651;51.594;9.928;2023-09-30T06:09:51;13.40;90.30
5258;DHT22;2651;51.594;9.928;2023-09-30T06:10:54;13.40;49.20
5258;DHT22;2651;51.594;9.928;2023-09-30T06:13:12;13.20;99.90
5258;DHT22;2651;51.594;9.928;2023-09-30T06:14:14;13.20;99.90
5258;DHT22;2651;51.594;9.928;2023-09-30T06:15:16;13.30;99.90
5258;DHT22;2651;51.594;9.928;2023-09-30T06:16:23;13.30;99.90
5258;DHT22;2651;51.594;9.928;2023-09-30T06:17:28;13.30;99.90
5258;DHT22;2651;51.594;9.928;2023-09-30T06:18:29;13.40;99.90
5258;DHT22;2651;51.594;9.928;2023-09-30T06:19:31;13.50;99.90
5258;DHT22;2651;51.594;9.928;2023-09-30T06:20:33;13.50;99.90
5258;DHT22;2651;51.594;9.928;2023-09-30T06:21:35;13.60;99.90
5258;DHT22;2651;51.594;9.928;2023-09-30T06:22:36;13.60;99.80
5258;DHT22;2651;51.594;9.928;2023-09-30T06:23:38;13.60;99.90
5258;DHT22;2651;51.594;9.928;2023-09-30T06:24:40;13.60;71.40
5258;DHT22;2651;51.594;9.928;2023-09-30T06:25:42;13.60;99.90
5258;DHT22;2651;51.594;9.928;2023-09-30T06:26:44;13.60;99.90
5258;DHT22;2651;51.594;9.928;2023-09-30T06:27:47;13.70;99.90
5258;DHT22;2651;51.594;9.928;2023-09-30T06:28:49;13.80;78.70
5258;DHT22;2651;51.594;9.928;2023-09-30T06:29:51;13.80;39.20
5258;DHT22;2651;51.594;9.928;2023-09-30T06:30:52;13.80;1.00
5258;DHT22;2651;51.594;9.928;2023-09-30T06:31:54;13.80;1.00
5258;DHT22;2651;51.594;9.928;2023-09-30T06:32:57;13.80;1.00
5258;DHT22;2651;51.594;9.928;2023-09-30T06:33:59;13.90;1.00
5258;DHT22;2651;51.594;9.928;2023-09-30T06:35:03;13.90;1.00
5258;DHT22;2651;51.594;9.928;2023-09-30T06:36:11;13.90;1.00
5258;DHT22;2651;51.594;9.928;2023-09-30T06:37:12;13.90;1.00
5258;DHT22;2651;51.594;9.928;2023-09-30T06:38:15;13.90;1.00
5258;DHT22;2651;51.594;9.928;2023-09-30T06:39:17;13.90;1.00
5258;DHT22;2651;51.594;9.928;2023-09-30T06:40:19;14.00;1.00
5258;DHT22;2651;51.594;9.928;2023-09-30T06:41:21;14.10;1.00
5258;DHT22;2651;51.594;9.928;2023-09-30T06:42:23;14.10;1.00
5258;DHT22;2651;51.594;9.928;2023-09-30T06:43:25;14.00;1.00
5258;DHT22;2651;51.594;9.928;2023-09-30T06:44:27;14.00;1.00
5258;DHT22;2651;51.594;9.928;2023-09-30T06:45:29;14.10;1.00
5258;DHT22;2651;51.594;9.928;2023-09-30T06:46:31;14.10;1.00
5258;DHT22;2651;51.594;9.928;2023-09-30T06:47:34;14.20;1.00
5258;DHT22;2651;51.594;9.928;2023-09-30T06:48:36;14.30;1.00
5258;DHT22;2651;51.594;9.928;2023-09-30T06:49:39;14.30;1.00
5258;DHT22;2651;51.594;9.928;2023-09-30T06:50:48;14.40;1.00
5258;DHT22;2651;51.594;9.928;2023-09-30T06:51:50;14.40;99.90